Newark, OH (43055)

9:59 AM EDT on May 23, 2015 (GMT -0400)
Up on Horns Hill | | Change Station
CLOSE
Current Station
Personal Weather Station
Location: Newark, OH
Elevation: 1030 ft
Nearby Weather Stations

Elev 1030 ft 40.13 °N, 82.40 °W | Updated 4 seconds ago

Clear
Clear
64.8 °F
Feels Like 64.8 °F
N
2.5
Wind Variable Wind from SE
Gusts 2.5 mph

Today
High -- | Low -- °F
--% Chance of Precip.
Yesterday
High -- | Low -- °F
Precip. -- in
6:07 AM 8:45 PM
Waxing Crescent, 30% visible
Pressure 30.41 in
Visibility 10.0 miles
Clouds Clear
Dew Point 45 °F
Humidity 49%
Rainfall 0.00 in
Snow Depth Not available.
UV 5 out of 12
Pollen 9.30 out of 12
Air Quality Not available.
Flu Activity Local Activity
METAR KVTA 231354Z AUTO 10005KT 10SM CLR 17/03 A3042 RMK AO2 SLP298 T01720033

More Conditions Fewer Conditions

Pressure 30.41 in
Visibility 10.0 miles
Clouds Clear
Dew Point 45 °F
Humidity 49%
Rainfall 0.00 in
Snow Depth Not available.
UV 5 out of 12
Pollen 9.30 out of 12
Air Quality Not available.
Flu Activity Local Activity
METAR KVTA 231354Z AUTO 10005KT 10SM CLR 17/03 A3042 RMK AO2 SLP298 T01720033

More Conditions Fewer Conditions

10-Day Weather Forecast

Almanac

Astronomy

May. 23, 2015 Rise Set
Actual Time
Civil Twilight
Nautical Twilight
Astronomical Twilight
Moon
Length of Visible Light
Length of Day
Tomorrow will be .
, % of the Moon is Illuminated

Today's Extremes

State Highs State Lows

Community

WunderPhotos

Upload Photos

1,823,467 photos uploaded!

WunderBlogs® & News

Nearby

Air Quality

  Air Quality AQ Index Pollutant
Not available.

Snow Depth

Station Depth Elevation

Earthquake Activity

City Distance Mag. Time & Date
Minimum magnitude displayed is 2.5.

Coastal Water Temperatures

Place Temperature

Stations

Nearby Weather Stations

Station Location Temp. Windchill Dew Point Humidity Wind Precip. Elev Updated Type